createdAt,value
2024-04-21T00:00:24.406Z,0.52
2024-04-21T00:01:24.489Z,0.52
2024-04-21T00:02:24.447Z,0.53
2024-04-21T00:03:24.509Z,0.51
2024-04-21T00:04:24.508Z,0.53
2024-04-21T00:05:24.427Z,0.52
2024-04-21T00:06:24.464Z,0.51
2024-04-21T00:07:24.437Z,0.52
2024-04-21T00:08:24.393Z,0.53
2024-04-21T00:09:24.438Z,0.52
2024-04-21T00:10:24.449Z,0.52
2024-04-21T00:11:24.468Z,0.52
2024-04-21T00:12:24.439Z,0.52
2024-04-21T00:13:24.423Z,0.52
2024-04-21T00:14:24.409Z,0.52
2024-04-21T00:15:24.434Z,0.52
2024-04-21T00:16:24.537Z,0.51
2024-04-21T00:17:24.429Z,0.51
2024-04-21T00:18:24.441Z,0.51
2024-04-21T00:19:24.449Z,0.50
2024-04-21T00:20:24.469Z,0.51
2024-04-21T00:21:24.412Z,0.52
2024-04-21T00:22:24.441Z,0.51
2024-04-21T00:23:24.448Z,0.52
2024-04-21T00:24:24.421Z,0.53
2024-04-21T00:25:24.467Z,0.51
2024-04-21T00:26:24.470Z,0.52
2024-04-21T00:27:24.421Z,0.51
2024-04-21T00:28:24.485Z,0.51
2024-04-21T00:29:24.444Z,0.51
2024-04-21T00:30:24.452Z,0.51
2024-04-21T00:31:24.462Z,0.52
2024-04-21T00:32:24.471Z,0.52
2024-04-21T00:33:24.539Z,0.52
2024-04-21T00:34:24.466Z,0.51
2024-04-21T00:35:24.459Z,0.51
2024-04-21T00:36:24.441Z,0.52
2024-04-21T00:37:24.443Z,0.52
2024-04-21T00:38:24.453Z,0.52
2024-04-21T00:39:24.467Z,0.52
2024-04-21T00:40:24.765Z,0.52
2024-04-21T00:41:24.496Z,0.52
2024-04-21T00:42:24.502Z,0.52
2024-04-21T00:43:24.538Z,0.51
2024-04-21T00:44:24.546Z,0.51
2024-04-21T00:45:29.472Z,0.51
2024-04-21T00:46:25.624Z,0.51
2024-04-21T00:47:24.537Z,0.51
2024-04-21T00:48:24.578Z,0.52
2024-04-21T00:49:24.586Z,0.52
2024-04-21T00:50:24.539Z,0.51
2024-04-21T00:51:24.558Z,0.51
2024-04-21T00:52:24.567Z,0.51
2024-04-21T00:53:24.550Z,0.52
2024-04-21T00:54:24.552Z,0.51
2024-04-21T00:55:24.576Z,0.52
2024-04-21T00:56:24.593Z,0.52
2024-04-21T00:57:24.555Z,0.52
2024-04-21T00:58:24.614Z,0.51
2024-04-21T00:59:24.594Z,0.51
2024-04-21T01:00:24.611Z,0.51
2024-04-21T01:01:24.620Z,0.50
2024-04-21T01:02:24.663Z,0.50
2024-04-21T01:03:24.579Z,0.51
2024-04-21T01:04:24.649Z,0.52
2024-04-21T01:05:24.616Z,0.51
2024-04-21T01:06:24.579Z,0.51
2024-04-21T01:07:24.585Z,0.52
2024-04-21T01:08:24.569Z,0.50
2024-04-21T01:09:24.591Z,0.51
2024-04-21T01:10:24.625Z,0.51
2024-04-21T01:11:24.584Z,0.51
2024-04-21T01:12:24.593Z,0.52
2024-04-21T01:13:24.619Z,0.52
2024-04-21T01:14:24.590Z,0.51
2024-04-21T01:15:24.594Z,0.51
2024-04-21T01:16:24.666Z,0.52
2024-04-21T01:17:24.682Z,0.52
2024-04-21T01:18:24.703Z,0.51
2024-04-21T01:19:24.656Z,0.52
2024-04-21T01:20:24.702Z,0.51
2024-04-21T01:21:24.728Z,0.52
2024-04-21T01:22:24.778Z,0.52
2024-04-21T01:23:24.781Z,0.52
2024-04-21T01:24:24.824Z,0.51
2024-04-21T01:25:24.864Z,0.51
2024-04-21T01:26:24.843Z,0.51
2024-04-21T01:27:24.850Z,0.51
2024-04-21T01:28:25.010Z,0.52
2024-04-21T01:29:24.887Z,0.52
2024-04-21T01:30:24.935Z,0.52
2024-04-21T01:31:24.999Z,0.51
2024-04-21T01:32:25.045Z,0.51
2024-04-21T01:33:25.083Z,0.52
2024-04-21T01:34:25.031Z,0.51
2024-04-21T01:35:25.028Z,0.51
2024-04-21T01:36:25.064Z,0.52
2024-04-21T01:37:25.076Z,0.50
2024-04-21T01:38:25.099Z,0.51
2024-04-21T01:39:25.139Z,0.52
2024-04-21T01:40:25.235Z,0.51
2024-04-21T01:41:25.164Z,0.51
2024-04-21T01:42:25.190Z,0.51
2024-04-21T01:43:25.268Z,0.51
2024-04-21T01:44:25.223Z,0.52
2024-04-21T01:45:25.284Z,0.52
2024-04-21T01:46:25.328Z,0.51
2024-04-21T01:47:25.359Z,0.50
2024-04-21T01:48:25.334Z,0.53
2024-04-21T01:49:25.324Z,0.52
2024-04-21T01:50:25.364Z,0.52
2024-04-21T01:51:25.355Z,0.52
2024-04-21T01:52:25.418Z,0.52
2024-04-21T01:53:25.438Z,0.52
2024-04-21T01:54:25.432Z,0.52
2024-04-21T01:55:25.577Z,0.51
2024-04-21T01:56:25.514Z,0.52
2024-04-21T01:57:25.529Z,0.52
2024-04-21T01:58:25.583Z,0.52
2024-04-21T01:59:25.562Z,0.52
2024-04-21T02:00:25.592Z,0.52
2024-04-21T02:01:25.674Z,0.51
2024-04-21T02:02:25.664Z,0.51
2024-04-21T02:03:25.681Z,0.51
2024-04-21T02:04:25.803Z,0.53
2024-04-21T02:05:25.697Z,0.53
2024-04-21T02:06:25.724Z,0.53
2024-04-21T02:07:25.857Z,0.52
2024-04-21T02:08:25.822Z,0.53
2024-04-21T02:09:25.805Z,0.51
2024-04-21T02:10:25.861Z,0.52
2024-04-21T02:11:25.859Z,0.51
2024-04-21T02:12:25.861Z,0.52
2024-04-21T02:13:25.904Z,0.53
2024-04-21T02:14:25.956Z,0.53
2024-04-21T02:15:25.947Z,0.52
2024-04-21T02:16:25.987Z,0.52
2024-04-21T02:17:26.106Z,0.52
2024-04-21T02:18:26.030Z,0.51
2024-04-21T02:19:28.330Z,0.53
2024-04-21T02:20:26.043Z,0.52
2024-04-21T02:21:26.046Z,0.52
2024-04-21T02:22:26.060Z,0.52
2024-04-21T02:23:26.062Z,0.50
2024-04-21T02:24:26.066Z,0.52
2024-04-21T02:25:26.140Z,0.51
2024-04-21T02:26:26.050Z,0.51
2024-04-21T02:27:26.044Z,0.51
2024-04-21T02:28:26.077Z,0.52
2024-04-21T02:29:26.056Z,0.51
2024-04-21T02:30:26.707Z,0.51
2024-04-21T02:31:26.106Z,0.51
2024-04-21T02:32:26.145Z,0.53
2024-04-21T02:33:26.142Z,0.51
2024-04-21T02:34:26.538Z,0.52
2024-04-21T02:35:26.069Z,0.51
2024-04-21T02:36:26.112Z,0.52
2024-04-21T02:37:26.198Z,0.52
2024-04-21T02:38:26.081Z,0.52
2024-04-21T02:39:26.056Z,0.52
2024-04-21T02:40:26.131Z,0.52
2024-04-21T02:41:26.092Z,0.52
2024-04-21T02:42:26.085Z,0.52
2024-04-21T02:43:26.098Z,0.51
2024-04-21T02:44:26.093Z,0.51
2024-04-21T02:45:26.147Z,0.52
2024-04-21T02:46:26.145Z,0.52
2024-04-21T02:47:26.081Z,0.52
2024-04-21T02:48:26.082Z,0.51
2024-04-21T02:49:26.135Z,0.51
2024-04-21T02:50:26.114Z,0.51
2024-04-21T02:51:26.080Z,0.52
2024-04-21T02:52:26.158Z,0.52
2024-04-21T02:53:26.097Z,0.52
2024-04-21T02:54:26.115Z,0.52
2024-04-21T02:55:26.145Z,0.51
2024-04-21T02:56:26.078Z,0.51
2024-04-21T02:57:26.083Z,0.51
2024-04-21T02:58:26.099Z,0.52
2024-04-21T02:59:28.923Z,0.52
2024-04-21T03:00:26.103Z,0.52
2024-04-21T03:01:26.215Z,0.51
2024-04-21T03:02:26.215Z,0.51
2024-04-21T03:03:26.181Z,0.52
2024-04-21T03:04:26.245Z,0.52
2024-04-21T03:05:26.109Z,0.52
2024-04-21T03:06:26.102Z,0.52
2024-04-21T03:07:26.107Z,0.51
2024-04-21T03:08:26.139Z,0.51
2024-04-21T03:09:26.103Z,0.52
2024-04-21T03:10:26.169Z,0.51
2024-04-21T03:11:26.147Z,0.52
2024-04-21T03:12:26.102Z,0.52
2024-04-21T03:13:26.108Z,0.52
2024-04-21T03:14:26.111Z,0.51
2024-04-21T03:15:26.094Z,0.51
2024-04-21T03:16:26.194Z,0.51
2024-04-21T03:17:26.304Z,0.52
2024-04-21T03:18:26.120Z,0.52
2024-04-21T03:19:26.186Z,0.52
2024-04-21T03:20:26.126Z,0.52
2024-04-21T03:21:26.121Z,0.51
2024-04-21T03:22:26.154Z,0.52
2024-04-21T03:23:26.107Z,0.50
2024-04-21T03:24:26.132Z,0.51
2024-04-21T03:25:26.205Z,0.50
2024-04-21T03:26:26.124Z,0.50
2024-04-21T03:27:26.137Z,0.52
2024-04-21T03:28:26.191Z,0.52
2024-04-21T03:29:26.144Z,0.51
2024-04-21T03:30:26.134Z,0.52
2024-04-21T03:31:26.166Z,0.52
2024-04-21T03:32:26.233Z,0.52
2024-04-21T03:33:26.305Z,0.52
2024-04-21T03:34:26.206Z,0.50
2024-04-21T03:35:26.137Z,0.51
2024-04-21T03:36:26.133Z,0.52
2024-04-21T03:37:26.146Z,0.51
2024-04-21T03:38:26.145Z,0.52
2024-04-21T03:39:26.176Z,0.52
2024-04-21T03:40:26.163Z,0.52
2024-04-21T03:41:26.152Z,0.51
2024-04-21T03:42:26.161Z,0.52
2024-04-21T03:43:26.230Z,0.52
2024-04-21T03:44:26.156Z,0.51
2024-04-21T03:45:26.167Z,0.51
2024-04-21T03:46:26.258Z,0.51
2024-04-21T03:47:26.312Z,0.52
2024-04-21T03:48:26.155Z,0.52
2024-04-21T03:49:26.204Z,0.51
2024-04-21T03:50:26.153Z,0.51
2024-04-21T03:51:26.166Z,0.52
2024-04-21T03:52:26.204Z,0.52
2024-04-21T03:53:26.207Z,0.52
2024-04-21T03:54:26.276Z,0.52
2024-04-21T03:55:26.385Z,0.52
2024-04-21T03:56:26.324Z,0.52
2024-04-21T03:57:26.365Z,0.51
2024-04-21T03:58:26.459Z,0.50
2024-04-21T03:59:26.417Z,0.51
2024-04-21T04:00:26.443Z,0.52
2024-04-21T04:01:26.528Z,0.53
2024-04-21T04:02:26.529Z,0.53
2024-04-21T04:03:26.639Z,0.53
2024-04-21T04:04:26.688Z,0.53
2024-04-21T04:05:26.644Z,0.52
2024-04-21T04:06:26.696Z,0.52
2024-04-21T04:07:26.779Z,0.52
2024-04-21T04:08:26.772Z,0.52
2024-04-21T04:09:26.825Z,0.52
2024-04-21T04:10:26.928Z,0.52
2024-04-21T04:11:26.900Z,0.52
2024-04-21T04:12:26.940Z,0.52
2024-04-21T04:13:27.035Z,0.52
2024-04-21T04:14:27.008Z,0.52
2024-04-21T04:15:27.032Z,0.52
2024-04-21T04:16:27.088Z,0.52
2024-04-21T04:17:27.158Z,0.51
2024-04-21T04:18:27.240Z,0.52
2024-04-21T04:19:27.268Z,0.52
2024-04-21T04:20:27.223Z,0.51
2024-04-21T04:21:27.247Z,0.52
2024-04-21T04:22:27.314Z,0.53
2024-04-21T04:23:27.346Z,0.53
2024-04-21T04:24:27.397Z,0.52
2024-04-21T04:25:27.435Z,0.53
2024-04-21T04:26:27.396Z,0.53
2024-04-21T04:27:27.450Z,0.52
2024-04-21T04:28:27.533Z,0.52
2024-04-21T04:29:27.554Z,0.52
2024-04-21T04:30:27.542Z,0.52
2024-04-21T04:31:27.667Z,0.53
2024-04-21T04:32:27.715Z,0.52
2024-04-21T04:33:27.784Z,0.53
2024-04-21T04:34:27.762Z,0.52
2024-04-21T04:35:35.071Z,0.50
2024-04-21T04:36:35.067Z,0.50
2024-04-21T04:37:35.089Z,0.50
2024-04-21T04:38:35.075Z,0.50
2024-04-21T04:39:35.118Z,0.50
2024-04-21T04:40:35.136Z,0.51
2024-04-21T04:41:35.081Z,0.51
2024-04-21T04:42:35.064Z,0.51
2024-04-21T04:43:35.067Z,0.50
2024-04-21T04:44:35.065Z,0.52
2024-04-21T04:45:35.064Z,0.50
2024-04-21T04:46:35.083Z,0.51
2024-04-21T04:47:35.172Z,0.51
2024-04-21T04:48:35.570Z,0.50
2024-04-21T04:49:35.083Z,0.51
2024-04-21T04:50:35.079Z,0.50
2024-04-21T04:51:35.079Z,0.51
2024-04-21T04:52:35.090Z,0.52
2024-04-21T04:53:35.083Z,0.51
2024-04-21T04:54:35.097Z,0.51
2024-04-21T04:55:35.078Z,0.52
2024-04-21T04:56:35.109Z,0.52
2024-04-21T04:57:35.092Z,0.51
2024-04-21T04:58:35.104Z,0.51
2024-04-21T04:59:35.101Z,0.51
2024-04-21T05:00:35.099Z,0.51
2024-04-21T05:01:35.182Z,0.52
2024-04-21T05:02:35.206Z,0.52
2024-04-21T05:03:35.161Z,0.51
2024-04-21T05:04:35.178Z,0.52
2024-04-21T05:05:35.105Z,0.52
2024-04-21T05:06:35.109Z,0.52
2024-04-21T05:07:35.147Z,0.51
2024-04-21T05:08:35.116Z,0.52
2024-04-21T05:09:35.135Z,0.51
2024-04-21T05:10:35.104Z,0.51
2024-04-21T05:11:35.158Z,0.52
2024-04-21T05:12:35.190Z,0.51
2024-04-21T05:13:35.209Z,0.52
2024-04-21T05:14:35.283Z,0.52
2024-04-21T05:15:35.293Z,0.52
2024-04-21T05:16:35.349Z,0.51
2024-04-21T05:17:35.494Z,0.52
2024-04-21T05:18:35.426Z,0.51
2024-04-21T05:19:35.483Z,0.51
2024-04-21T05:20:35.512Z,0.51
2024-04-21T05:21:35.532Z,0.52
2024-04-21T05:22:35.604Z,0.52
2024-04-21T05:23:35.622Z,0.51
2024-04-21T05:24:35.672Z,0.52
2024-04-21T05:25:35.744Z,0.52
2024-04-21T05:26:35.738Z,0.52
2024-04-21T05:27:35.804Z,0.50
2024-04-21T05:28:45.157Z,0.51
2024-04-21T05:29:36.823Z,0.51
2024-04-21T05:30:35.845Z,0.51
2024-04-21T05:31:35.899Z,0.52
2024-04-21T05:32:35.906Z,0.50
2024-04-21T05:33:35.835Z,0.52
2024-04-21T05:34:35.937Z,0.52
2024-04-21T05:35:35.835Z,0.50
2024-04-21T05:36:35.843Z,0.51
2024-04-21T05:37:35.898Z,0.51
2024-04-21T05:38:35.853Z,0.52
2024-04-21T05:39:35.834Z,0.51
2024-04-21T05:40:35.849Z,0.50
2024-04-21T05:41:35.836Z,0.52
2024-04-21T05:42:35.834Z,0.52
2024-04-21T05:43:35.966Z,0.51
2024-04-21T05:44:35.983Z,0.51
2024-04-21T05:45:36.016Z,0.52
2024-04-21T05:46:35.991Z,0.52
2024-04-21T05:47:36.134Z,0.51
2024-04-21T05:48:36.134Z,0.50
2024-04-21T05:49:36.140Z,0.50
2024-04-21T05:50:36.148Z,0.51
2024-04-21T05:51:36.176Z,0.52
2024-04-21T05:52:36.207Z,0.51
2024-04-21T05:53:36.275Z,0.52
2024-04-21T05:54:36.317Z,0.51
2024-04-21T05:55:36.354Z,0.52
2024-04-21T05:56:36.387Z,0.51
2024-04-21T05:57:36.446Z,0.52
2024-04-21T05:58:36.483Z,0.51
2024-04-21T05:59:36.536Z,0.51
2024-04-21T06:00:36.576Z,0.51
2024-04-21T06:01:36.619Z,0.51
2024-04-21T06:02:36.688Z,0.51
2024-04-21T06:03:36.707Z,0.51
2024-04-21T06:04:36.844Z,0.50
2024-04-21T06:05:36.819Z,0.52
2024-04-21T06:06:36.781Z,0.52
2024-04-21T06:07:36.808Z,0.51
2024-04-21T06:08:36.877Z,0.52
2024-04-21T06:09:36.918Z,0.51
2024-04-21T06:10:36.995Z,0.52
2024-04-21T06:11:36.975Z,0.50
2024-04-21T06:12:36.986Z,0.52
2024-04-21T06:13:37.085Z,0.51
2024-04-21T06:14:37.135Z,0.52
2024-04-21T06:15:37.117Z,0.51
2024-04-21T06:16:37.150Z,0.52
2024-04-21T06:17:37.208Z,0.52
2024-04-21T06:18:37.375Z,0.50
2024-04-21T06:19:37.338Z,0.52
2024-04-21T06:20:37.299Z,0.52
2024-04-21T06:21:37.339Z,0.51
2024-04-21T06:22:37.373Z,0.52
2024-04-21T06:23:37.419Z,0.51
2024-04-21T06:24:37.452Z,0.53
2024-04-21T06:25:37.509Z,0.52
2024-04-21T06:26:39.283Z,0.52
2024-04-21T06:27:37.528Z,0.52
2024-04-21T06:28:37.543Z,0.51
2024-04-21T06:29:37.557Z,0.52
2024-04-21T06:30:37.570Z,0.52
2024-04-21T06:31:37.546Z,0.52
2024-04-21T06:32:37.635Z,0.51
2024-04-21T06:33:37.525Z,0.51
2024-04-21T06:34:37.574Z,0.51
2024-04-21T06:35:37.543Z,0.51
2024-04-21T06:36:37.547Z,0.52
2024-04-21T06:37:37.567Z,0.52
2024-04-21T06:38:37.539Z,0.52
2024-04-21T06:39:37.560Z,0.51
2024-04-21T06:40:37.617Z,0.52
2024-04-21T06:41:37.529Z,0.52
2024-04-21T06:42:37.547Z,0.51
2024-04-21T06:43:37.571Z,0.52
2024-04-21T06:44:37.566Z,0.51
2024-04-21T06:45:37.555Z,0.51
2024-04-21T06:46:37.554Z,0.51
2024-04-21T06:47:37.610Z,0.52
2024-04-21T06:48:37.660Z,0.51
2024-04-21T06:49:37.602Z,0.51
2024-04-21T06:50:37.558Z,0.51
2024-04-21T06:51:37.552Z,0.51
2024-04-21T06:52:37.588Z,0.51
2024-04-21T06:53:37.544Z,0.51
2024-04-21T06:54:37.560Z,0.51
2024-04-21T06:55:37.588Z,0.50
2024-04-21T06:56:37.553Z,0.52
2024-04-21T06:57:37.609Z,0.51
2024-04-21T06:58:37.567Z,0.51
2024-04-21T06:59:37.556Z,0.51
2024-04-21T07:00:37.614Z,0.52
2024-04-21T07:01:37.721Z,0.52
2024-04-21T07:02:37.679Z,0.52
2024-04-21T07:03:37.651Z,0.51
2024-04-21T07:04:37.592Z,0.51
2024-04-21T07:05:37.582Z,0.51
2024-04-21T07:06:37.549Z,0.52
2024-04-21T07:07:37.585Z,0.51
2024-04-21T07:08:37.573Z,0.52
2024-04-21T07:09:37.574Z,0.51
2024-04-21T07:10:37.705Z,0.52
2024-04-21T07:11:37.745Z,0.50
2024-04-21T07:12:37.581Z,0.53
2024-04-21T07:13:37.577Z,0.50
2024-04-21T07:14:37.612Z,0.51
2024-04-21T07:15:37.594Z,0.51
2024-04-21T07:16:37.592Z,0.51
2024-04-21T07:17:37.664Z,0.51
2024-04-21T07:18:37.715Z,0.51
2024-04-21T07:19:37.759Z,0.52
2024-04-21T07:20:37.590Z,0.52
2024-04-21T07:21:37.583Z,0.53
2024-04-21T07:22:37.625Z,0.52
2024-04-21T07:23:37.600Z,0.51
2024-04-21T07:24:37.599Z,0.52
2024-04-21T07:25:37.670Z,0.52
2024-04-21T07:26:37.604Z,0.50
2024-04-21T07:27:37.593Z,0.51
2024-04-21T07:28:37.601Z,0.52
2024-04-21T07:29:40.036Z,0.52
2024-04-21T07:30:37.629Z,0.51
2024-04-21T07:31:37.607Z,0.52
2024-04-21T07:32:37.636Z,0.51
2024-04-21T07:33:37.605Z,0.52
2024-04-21T07:34:37.627Z,0.52
2024-04-21T07:35:37.637Z,0.51
2024-04-21T07:36:37.603Z,0.52
2024-04-21T07:37:37.628Z,0.51
2024-04-21T07:38:37.618Z,0.52
2024-04-21T07:39:37.600Z,0.52
2024-04-21T07:40:37.624Z,0.51
2024-04-21T07:41:37.627Z,0.51
2024-04-21T07:42:37.636Z,0.51
2024-04-21T07:43:37.632Z,0.51
2024-04-21T07:44:37.641Z,0.51
2024-04-21T07:45:37.650Z,0.51
2024-04-21T07:46:37.628Z,0.50
2024-04-21T07:47:37.686Z,0.51
2024-04-21T07:48:37.672Z,0.51
2024-04-21T07:49:37.646Z,0.51
2024-04-21T07:50:37.618Z,0.52
2024-04-21T07:51:37.641Z,0.52
2024-04-21T07:52:37.634Z,0.51
2024-04-21T07:53:37.644Z,0.51
2024-04-21T07:54:37.659Z,0.51
2024-04-21T07:55:37.649Z,0.51
2024-04-21T07:56:37.634Z,0.51
2024-04-21T07:57:37.627Z,0.51
2024-04-21T07:58:37.620Z,0.51
2024-04-21T07:59:37.639Z,0.50
2024-04-21T08:00:37.663Z,0.50
2024-04-21T08:01:37.693Z,0.51
2024-04-21T08:02:37.645Z,0.53
2024-04-21T08:03:37.846Z,0.50
2024-04-21T08:04:37.629Z,0.52
2024-04-21T08:05:37.611Z,0.50
2024-04-21T08:06:37.619Z,0.51
2024-04-21T08:07:37.639Z,0.52
2024-04-21T08:08:37.650Z,0.52
2024-04-21T08:09:37.626Z,0.52
2024-04-21T08:10:47.638Z,0.52
2024-04-21T08:11:38.812Z,0.52
2024-04-21T08:12:37.639Z,0.52
2024-04-21T08:13:37.625Z,0.53
2024-04-21T08:14:37.644Z,0.52
2024-04-21T08:15:40.803Z,0.52
2024-04-21T08:16:37.649Z,0.51
2024-04-21T08:17:37.659Z,0.52
2024-04-21T08:18:37.776Z,0.52
2024-04-21T08:19:37.696Z,0.53
2024-04-21T08:20:37.655Z,0.52
2024-04-21T08:21:37.647Z,0.52
2024-04-21T08:22:37.647Z,0.52
2024-04-21T08:23:37.650Z,0.52
2024-04-21T08:24:37.628Z,0.54
2024-04-21T08:25:37.648Z,0.52
2024-04-21T08:26:37.677Z,0.52
2024-04-21T08:27:37.645Z,0.52
2024-04-21T08:28:37.631Z,0.53
2024-04-21T08:29:37.659Z,0.52
2024-04-21T08:30:37.656Z,0.52
2024-04-21T08:31:37.692Z,0.52
2024-04-21T08:32:37.693Z,0.51
2024-04-21T08:33:37.637Z,0.52
2024-04-21T08:34:37.678Z,0.52
2024-04-21T08:35:37.662Z,0.51
2024-04-21T08:36:37.663Z,0.52
2024-04-21T08:37:37.721Z,0.52
2024-04-21T08:38:37.647Z,0.52
2024-04-21T08:39:37.662Z,0.51
2024-04-21T08:40:37.674Z,0.52
2024-04-21T08:41:37.673Z,0.51
2024-04-21T08:42:37.651Z,0.52
2024-04-21T08:43:37.686Z,0.51
2024-04-21T08:44:37.681Z,0.50
2024-04-21T08:45:37.666Z,0.52
2024-04-21T08:46:37.669Z,0.50
2024-04-21T08:47:37.687Z,0.51
2024-04-21T08:48:37.690Z,0.51
2024-04-21T08:49:37.682Z,0.52
2024-04-21T08:50:37.721Z,0.51
2024-04-21T08:51:37.706Z,0.51
2024-04-21T08:52:37.702Z,0.51
2024-04-21T08:53:37.698Z,0.52
2024-04-21T08:54:37.673Z,0.52
2024-04-21T08:55:37.699Z,0.51
2024-04-21T08:56:37.705Z,0.50
2024-04-21T08:57:37.669Z,0.51
2024-04-21T08:58:37.706Z,0.51
2024-04-21T08:59:37.700Z,0.51
2024-04-21T09:00:37.697Z,0.51
2024-04-21T09:01:37.728Z,0.50
2024-04-21T09:02:37.703Z,0.51
2024-04-21T09:03:37.738Z,0.51
2024-04-21T09:04:37.724Z,0.51
2024-04-21T09:05:37.687Z,0.52
2024-04-21T09:06:37.688Z,0.51
2024-04-21T09:07:37.719Z,0.52
2024-04-21T09:08:37.699Z,0.51
2024-04-21T09:09:37.700Z,0.52
2024-04-21T09:10:37.738Z,0.51
2024-04-21T09:11:37.686Z,0.52
2024-04-21T09:12:37.692Z,0.52
2024-04-21T09:13:37.692Z,0.52
2024-04-21T09:14:37.705Z,0.51
2024-04-21T09:15:37.712Z,0.52
2024-04-21T09:16:37.743Z,0.53
2024-04-21T09:17:37.794Z,0.52
2024-04-21T09:18:37.819Z,0.52
2024-04-21T09:19:37.783Z,0.52
2024-04-21T09:20:37.822Z,0.52
2024-04-21T09:21:37.720Z,0.51
2024-04-21T09:22:37.711Z,0.53
2024-04-21T09:23:37.696Z,0.52
2024-04-21T09:24:37.716Z,0.52
2024-04-21T09:25:37.719Z,0.51
2024-04-21T09:26:37.715Z,0.52
2024-04-21T09:27:37.711Z,0.53
2024-04-21T09:28:37.718Z,0.53
2024-04-21T09:29:37.722Z,0.53
2024-04-21T09:30:37.725Z,0.53
2024-04-21T09:31:37.737Z,0.52
2024-04-21T09:32:37.808Z,0.51
2024-04-21T09:33:37.749Z,0.54
2024-04-21T09:34:37.729Z,0.52
2024-04-21T09:35:37.704Z,0.51
2024-04-21T09:36:37.700Z,0.52
2024-04-21T09:37:37.743Z,0.52
2024-04-21T09:38:37.721Z,0.53
2024-04-21T09:39:37.729Z,0.53
2024-04-21T09:40:37.737Z,0.53
2024-04-21T09:41:37.736Z,0.52
2024-04-21T09:42:37.722Z,0.53
2024-04-21T09:43:37.742Z,0.53
2024-04-21T09:44:37.717Z,0.53
2024-04-21T09:45:37.713Z,0.52
2024-04-21T09:46:37.766Z,0.53
2024-04-21T09:47:37.806Z,0.53
2024-04-21T09:48:37.799Z,0.53
2024-04-21T09:49:37.733Z,0.52
2024-04-21T09:50:37.747Z,0.52
2024-04-21T09:51:37.750Z,0.52
2024-04-21T09:52:37.774Z,0.53
2024-04-21T09:53:37.723Z,0.52
2024-04-21T09:54:37.756Z,0.52
2024-04-21T09:55:37.745Z,0.52
2024-04-21T09:56:37.751Z,0.54
2024-04-21T09:57:37.763Z,0.52
2024-04-21T09:58:37.732Z,0.53
2024-04-21T09:59:37.743Z,0.52
2024-04-21T10:00:37.756Z,0.52
2024-04-21T10:01:37.862Z,0.53
2024-04-21T10:02:38.969Z,0.52
2024-04-21T10:03:37.797Z,0.52
2024-04-21T10:04:37.825Z,0.52
2024-04-21T10:05:37.776Z,0.52
2024-04-21T10:06:37.733Z,0.52
2024-04-21T10:07:37.747Z,0.53
2024-04-21T10:08:37.776Z,0.53
2024-04-21T10:09:37.736Z,0.52
2024-04-21T10:10:37.817Z,0.52
2024-04-21T10:11:37.761Z,0.51
2024-04-21T10:12:37.771Z,0.52
2024-04-21T10:13:37.775Z,0.52
2024-04-21T10:14:37.772Z,0.53
2024-04-21T10:15:37.858Z,0.53
2024-04-21T10:16:37.753Z,0.53
2024-04-21T10:17:37.851Z,0.53
2024-04-21T10:18:37.834Z,0.52
2024-04-21T10:19:39.806Z,0.53
2024-04-21T10:20:37.799Z,0.53
2024-04-21T10:21:37.790Z,0.52
2024-04-21T10:22:37.787Z,0.52
2024-04-21T10:23:37.787Z,0.53
2024-04-21T10:24:37.774Z,0.52
2024-04-21T10:25:37.774Z,0.53
2024-04-21T10:26:37.767Z,0.53
2024-04-21T10:27:37.799Z,0.52
2024-04-21T10:28:37.826Z,0.52
2024-04-21T10:29:37.798Z,0.52
2024-04-21T10:30:37.846Z,0.52
2024-04-21T10:31:37.885Z,0.52
2024-04-21T10:32:37.949Z,0.52
2024-04-21T10:33:37.890Z,0.53
2024-04-21T10:34:37.940Z,0.52
2024-04-21T10:35:37.944Z,0.52
2024-04-21T10:36:37.984Z,0.54
2024-04-21T10:37:37.996Z,0.53
2024-04-21T10:38:38.014Z,0.53
2024-04-21T10:39:38.043Z,0.53
2024-04-21T10:40:38.120Z,0.53
2024-04-21T10:41:38.077Z,0.53
2024-04-21T10:42:38.167Z,0.53
2024-04-21T10:43:38.170Z,0.54
2024-04-21T10:44:38.225Z,0.54
2024-04-21T10:45:38.291Z,0.53
2024-04-21T10:46:38.341Z,0.53
2024-04-21T10:47:38.419Z,0.53
2024-04-21T10:48:38.419Z,0.53
2024-04-21T10:49:38.427Z,0.53
2024-04-21T10:50:38.492Z,0.53
2024-04-21T10:51:38.522Z,0.52
2024-04-21T10:52:38.593Z,0.53
2024-04-21T10:53:38.667Z,0.53
2024-04-21T10:54:38.721Z,0.52
2024-04-21T10:55:38.857Z,0.53
2024-04-21T10:56:38.812Z,0.53
2024-04-21T10:57:38.887Z,0.52
2024-04-21T10:58:38.937Z,0.53
2024-04-21T10:59:38.974Z,0.52
2024-04-21T11:00:39.556Z,0.52
2024-04-21T11:01:39.194Z,0.53
2024-04-21T11:02:39.244Z,0.52
2024-04-21T11:03:39.257Z,0.54
2024-04-21T11:04:39.308Z,0.54
2024-04-21T11:05:39.359Z,0.52
2024-04-21T11:06:39.431Z,0.52
2024-04-21T11:07:39.484Z,0.52
2024-04-21T11:08:39.573Z,0.52
2024-04-21T11:09:39.616Z,0.52
2024-04-21T11:10:39.763Z,0.53
2024-04-21T11:11:39.759Z,0.52
2024-04-21T11:12:39.819Z,0.52
2024-04-21T11:13:39.898Z,0.51
2024-04-21T11:14:39.970Z,0.52
2024-04-21T11:15:40.018Z,0.52
2024-04-21T11:16:40.094Z,0.52
2024-04-21T11:17:40.226Z,0.52
2024-04-21T11:18:40.370Z,0.52
2024-04-21T11:19:40.349Z,0.52
2024-04-21T11:20:40.348Z,0.54
2024-04-21T11:21:40.436Z,0.53
2024-04-21T11:22:40.498Z,0.52
2024-04-21T11:23:40.549Z,0.52
2024-04-21T11:24:40.591Z,0.52
2024-04-21T11:25:40.662Z,0.52
2024-04-21T11:26:40.683Z,0.52
2024-04-21T11:27:40.753Z,0.53
2024-04-21T11:28:40.826Z,0.53
2024-04-21T11:29:40.835Z,0.51
2024-04-21T11:30:40.855Z,0.52
2024-04-21T11:31:40.931Z,0.52
2024-04-21T11:32:41.014Z,0.52
2024-04-21T11:33:41.006Z,0.53
2024-04-21T11:34:41.074Z,0.53
2024-04-21T11:35:41.108Z,0.52
2024-04-21T11:36:41.130Z,0.52
2024-04-21T11:37:41.182Z,0.52
2024-04-21T11:38:41.215Z,0.52
2024-04-21T11:39:41.265Z,0.53
2024-04-21T11:40:41.282Z,0.52
2024-04-21T11:41:41.345Z,0.53
2024-04-21T11:42:41.416Z,0.53
2024-04-21T11:43:41.473Z,0.52
2024-04-21T11:44:41.455Z,0.53
2024-04-21T11:45:41.464Z,0.54
2024-04-21T11:46:41.535Z,0.52
2024-04-21T11:47:41.653Z,0.52
2024-04-21T11:48:41.682Z,0.53
2024-04-21T11:49:41.665Z,0.54
2024-04-21T11:50:41.672Z,0.53
2024-04-21T11:51:41.711Z,0.53
2024-04-21T11:52:41.726Z,0.54
2024-04-21T11:53:41.788Z,0.53
2024-04-21T11:54:43.582Z,0.53
2024-04-21T11:55:41.841Z,0.53
2024-04-21T11:56:41.911Z,0.53
2024-04-21T11:57:41.957Z,0.54
2024-04-21T11:58:42.007Z,0.54
2024-04-21T11:59:42.065Z,0.53
2024-04-21T12:00:42.112Z,0.53
2024-04-21T12:01:49.487Z,0.54
2024-04-21T12:02:43.149Z,0.54
2024-04-21T12:03:42.195Z,0.54
2024-04-21T12:04:42.257Z,0.54
2024-04-21T12:05:42.168Z,0.54
2024-04-21T12:06:43.880Z,0.54
2024-04-21T12:07:42.148Z,0.54
2024-04-21T12:08:42.181Z,0.55
2024-04-21T12:09:42.163Z,0.55
2024-04-21T12:10:42.204Z,0.53
2024-04-21T12:11:42.224Z,0.54
2024-04-21T12:12:43.507Z,0.54
2024-04-21T12:13:42.197Z,0.54
2024-04-21T12:14:42.227Z,0.54
2024-04-21T12:15:42.330Z,0.54
2024-04-21T12:16:42.419Z,0.54
2024-04-21T12:17:42.418Z,0.55
2024-04-21T12:18:43.916Z,0.55
2024-04-21T12:19:42.477Z,0.54
2024-04-21T12:20:42.564Z,0.55
2024-04-21T12:21:42.618Z,0.54
2024-04-21T12:22:42.686Z,0.55
2024-04-21T12:23:42.745Z,0.54
2024-04-21T12:24:43.983Z,0.55
2024-04-21T12:25:42.907Z,0.56
2024-04-21T12:26:42.975Z,0.55
2024-04-21T12:27:43.035Z,0.55
2024-04-21T12:28:43.087Z,0.55
2024-04-21T12:29:43.166Z,0.55
2024-04-21T12:30:44.533Z,0.56
2024-04-21T12:31:43.281Z,0.55
2024-04-21T12:32:43.404Z,0.54
2024-04-21T12:33:43.416Z,0.55
2024-04-21T12:34:43.466Z,0.55
2024-04-21T12:35:43.572Z,0.55
2024-04-21T12:36:43.642Z,0.56
2024-04-21T12:37:43.646Z,0.55
2024-04-21T12:38:43.710Z,0.55
2024-04-21T12:39:43.789Z,0.55
2024-04-21T12:40:43.867Z,0.56
2024-04-21T12:41:43.923Z,0.55
2024-04-21T12:42:44.030Z,0.55
2024-04-21T12:43:44.076Z,0.55
2024-04-21T12:44:44.113Z,0.57
2024-04-21T12:45:44.219Z,0.56
2024-04-21T12:46:44.361Z,0.56
2024-04-21T12:47:44.326Z,0.57
2024-04-21T12:48:44.341Z,0.55
2024-04-21T12:49:44.386Z,0.55
2024-04-21T12:50:44.423Z,0.55
2024-04-21T12:51:44.466Z,0.56
2024-04-21T12:52:44.476Z,0.56
2024-04-21T12:53:44.544Z,0.56
2024-04-21T12:54:44.553Z,0.56
2024-04-21T12:55:44.568Z,0.56
2024-04-21T12:56:44.580Z,0.55
2024-04-21T12:57:44.624Z,0.56
2024-04-21T12:58:44.660Z,0.55
2024-04-21T12:59:46.398Z,0.56
2024-04-21T13:00:44.749Z,0.56
2024-04-21T13:01:44.799Z,0.55
2024-04-21T13:02:44.947Z,0.56
2024-04-21T13:03:44.839Z,0.55
2024-04-21T13:04:44.994Z,0.56
2024-04-21T13:05:44.859Z,0.56
2024-04-21T13:06:44.850Z,0.55
2024-04-21T13:07:44.895Z,0.55
2024-04-21T13:08:44.921Z,0.56
2024-04-21T13:09:44.973Z,0.56
2024-04-21T13:10:45.036Z,0.57
2024-04-21T13:11:45.024Z,0.56
2024-04-21T13:12:45.058Z,0.55
2024-04-21T13:13:45.055Z,0.56
2024-04-21T13:14:45.095Z,0.55
2024-04-21T13:15:45.123Z,0.55
2024-04-21T13:16:45.145Z,0.56
2024-04-21T13:17:46.915Z,0.55
2024-04-21T13:18:45.189Z,0.55